Ana Sayfa
METAR-TAF:

METAR-TAF

Havaalanları :

Brewster Field

Holdrege, Nebraska, Amerika Birleşik Devletleri

Enlem: 40-27N, Boylam: 099-20W, yükseklik: 704 m

Güncel hava durumu gözlemi

Rapor saat 05:15 UTC de 15 dakika önce yapıldı.
Rüzgar kuzey/kuzeydoğudan 18 kt ve 26 kt'a kadar ani rüzgarlar
Sıcaklık 9°C
Nem 76%
Basınç 1015 hPa
Görüş mesafesi: 16.1 km
7500 ft yükseklikte parçalı bulutlu
8500 ft yükseklikte parçalı çok bulutlu

METAR: KHDE 180515Z AUTO 02018G26KT 10SM SCT075 BKN085 09/05 A2996 RMK AO2 LTG DSNT E T00900047

Saat: 00:30 (05:30 UTC)


TAF: eksik

4.000'den fazla havaalanı için hava durumu gözlemleri ve tahminleri (METAR ve TAF raporları).

Kullanılabilir istasyonlar harita üzerinde sarı ve kırmızı noktalarla gösterilir.

İstasyonun adını görmek için fareyi noktanın üzerinde gezdirin.

Sonrasında hava gözlem ve tahminlerini görmek için tıklayın.

Haritayı değiştirmek için: yaklaştırmak için siyah artı işaretli yeşil düğmeye ve uzaklaştırmak için de eksi işaretli düğmeye hızla tıklayın; bitişik haritalar için yeşil okları kullanın.


METAR-TAF: